createdAt,value
2023-03-19T00:03:07.739Z,96026.00
2023-03-19T00:07:12.744Z,96019.00
2023-03-19T00:11:15.827Z,96010.00
2023-03-19T00:15:22.156Z,96015.00
2023-03-19T00:19:25.987Z,96012.00
2023-03-19T00:23:29.365Z,96020.00
2023-03-19T00:27:33.509Z,96007.00
2023-03-19T00:31:38.093Z,96010.00
2023-03-19T00:35:44.182Z,96020.00
2023-03-19T00:39:47.626Z,96018.00
2023-03-19T00:43:57.333Z,96027.00
2023-03-19T00:48:01.860Z,96018.00
2023-03-19T00:52:04.969Z,96012.00
2023-03-19T00:56:11.486Z,96009.00
2023-03-19T01:04:19.133Z,96004.00
2023-03-19T01:08:28.587Z,96013.00
2023-03-19T01:12:34.236Z,96011.00
2023-03-19T01:16:39.979Z,96018.00
2023-03-19T01:20:49.608Z,96019.00
2023-03-19T01:24:55.811Z,96013.00
2023-03-19T01:29:02.403Z,96010.00
2023-03-19T01:33:08.474Z,96004.00
2023-03-19T01:37:13.035Z,96007.00
2023-03-19T01:41:19.977Z,96005.00
2023-03-19T01:45:36.559Z,96009.00
2023-03-19T01:49:40.576Z,96009.00
2023-03-19T01:53:48.879Z,95994.00
2023-03-19T01:57:52.315Z,95999.00
2023-03-19T02:02:05.653Z,96002.00
2023-03-19T02:06:09.366Z,96003.00
2023-03-19T02:10:25.670Z,96002.00
2023-03-19T02:14:32.157Z,96013.00
2023-03-19T02:18:37.427Z,96016.00
2023-03-19T02:22:47.608Z,96019.00
2023-03-19T02:26:52.326Z,96018.00
2023-03-19T02:30:57.267Z,96022.00
2023-03-19T02:35:00.754Z,96019.00
2023-03-19T02:39:05.670Z,96017.00
2023-03-19T02:43:15.160Z,96019.00
2023-03-19T02:47:19.274Z,96020.00
2023-03-19T02:51:22.288Z,96011.00
2023-03-19T02:55:25.751Z,96009.00
2023-03-19T02:59:32.266Z,96006.00
2023-03-19T03:03:35.597Z,96005.00
2023-03-19T03:07:39.753Z,96014.00
2023-03-19T03:11:44.442Z,96015.00
2023-03-19T03:15:48.854Z,96024.00
2023-03-19T03:19:51.896Z,96022.00
2023-03-19T03:23:55.262Z,96027.00
2023-03-19T03:27:58.235Z,96029.00
2023-03-19T03:32:02.966Z,96038.00
2023-03-19T03:36:06.482Z,96050.00
2023-03-19T03:40:11.339Z,96061.00
2023-03-19T03:44:14.624Z,96059.00
2023-03-19T03:48:19.196Z,96065.00
2023-03-19T03:52:25.423Z,96060.00
2023-03-19T03:56:28.468Z,96059.00
2023-03-19T04:00:35.202Z,96060.00
2023-03-19T04:04:39.850Z,96056.00
2023-03-19T04:08:46.109Z,96056.00
2023-03-19T04:12:51.089Z,96057.00
2023-03-19T04:16:54.228Z,96053.00
2023-03-19T04:21:06.049Z,96067.00
2023-03-19T04:25:13.209Z,96053.00
2023-03-19T04:29:22.214Z,96060.00
2023-03-19T04:33:25.732Z,96060.00
2023-03-19T04:37:32.307Z,96051.00
2023-03-19T04:41:39.855Z,96052.00
2023-03-19T04:45:43.516Z,96064.00
2023-03-19T04:49:47.139Z,96064.00
2023-03-19T04:53:51.500Z,96058.00
2023-03-19T04:57:54.520Z,96067.00
2023-03-19T05:01:59.775Z,96072.00
2023-03-19T05:06:03.365Z,96078.00
2023-03-19T05:10:09.033Z,96074.00
2023-03-19T05:14:13.857Z,96076.00
2023-03-19T05:18:17.042Z,96083.00
2023-03-19T05:22:21.091Z,96090.00
2023-03-19T05:26:26.075Z,96085.00
2023-03-19T05:30:31.685Z,96088.00
2023-03-19T05:34:39.272Z,96094.00
2023-03-19T05:38:51.352Z,96102.00
2023-03-19T05:42:57.897Z,96108.00
2023-03-19T05:47:03.913Z,96108.00
2023-03-19T05:51:07.511Z,96110.00
2023-03-19T05:55:11.170Z,96111.00
2023-03-19T05:59:28.878Z,96116.00
2023-03-19T06:03:35.107Z,96117.00
2023-03-19T06:07:49.034Z,96119.00
2023-03-19T06:11:54.793Z,96141.00
2023-03-19T06:15:59.348Z,96145.00
2023-03-19T06:20:02.551Z,96157.00
2023-03-19T06:24:08.139Z,96155.00
2023-03-19T06:28:11.788Z,96162.00
2023-03-19T06:32:16.662Z,96150.00
2023-03-19T06:36:19.695Z,96162.00
2023-03-19T06:40:24.361Z,96172.00
2023-03-19T06:44:28.494Z,96174.00
2023-03-19T06:48:33.238Z,96173.00
2023-03-19T06:52:36.280Z,96182.00
2023-03-19T06:56:39.587Z,96193.00
2023-03-19T07:00:43.024Z,96188.00
2023-03-19T07:04:52.478Z,96200.00
2023-03-19T07:08:57.347Z,96197.00
2023-03-19T07:13:01.650Z,96203.00
2023-03-19T07:17:04.808Z,96207.00
2023-03-19T07:21:11.808Z,96201.00
2023-03-19T07:25:17.685Z,96217.00
2023-03-19T07:29:20.889Z,96219.00
2023-03-19T07:33:26.042Z,96221.00
2023-03-19T07:37:30.557Z,96218.00
2023-03-19T07:41:35.610Z,96220.00
2023-03-19T07:45:38.930Z,96233.00
2023-03-19T07:49:41.969Z,96240.00
2023-03-19T07:53:49.004Z,96234.00
2023-03-19T07:57:52.105Z,96248.00
2023-03-19T08:01:55.232Z,96248.00
2023-03-19T08:05:58.298Z,96251.00
2023-03-19T08:10:04.900Z,96244.00
2023-03-19T08:14:13.751Z,96241.00
2023-03-19T08:18:16.876Z,96238.00
2023-03-19T08:22:22.629Z,96245.00
2023-03-19T08:26:29.609Z,96246.00
2023-03-19T08:30:33.264Z,96244.00
2023-03-19T08:34:36.698Z,96256.00
2023-03-19T08:38:45.276Z,96258.00
2023-03-19T08:42:50.060Z,96257.00
2023-03-19T08:46:53.072Z,96260.00
2023-03-19T08:50:58.073Z,96259.00
2023-03-19T08:55:01.349Z,96260.00
2023-03-19T08:59:06.238Z,96250.00
2023-03-19T09:03:09.254Z,96255.00
2023-03-19T09:07:13.578Z,96246.00
2023-03-19T09:11:17.365Z,96265.00
2023-03-19T09:15:22.930Z,96268.00
2023-03-19T09:19:29.139Z,96283.00
2023-03-19T09:23:32.335Z,96282.00
2023-03-19T09:27:35.614Z,96289.00
2023-03-19T09:31:40.518Z,96299.00
2023-03-19T09:35:45.684Z,96291.00
2023-03-19T09:39:48.905Z,96301.00
2023-03-19T09:44:05.746Z,96300.00
2023-03-19T09:48:19.627Z,96302.00
2023-03-19T09:52:35.558Z,96302.00
2023-03-19T09:56:38.867Z,96306.00
2023-03-19T10:00:42.809Z,96309.00
2023-03-19T10:05:05.574Z,96319.00
2023-03-19T10:09:45.503Z,96331.00
2023-03-19T10:14:02.081Z,96316.00
2023-03-19T10:18:10.026Z,96321.00
2023-03-19T10:22:19.596Z,96313.00
2023-03-19T10:26:32.354Z,96335.00
2023-03-19T10:30:36.653Z,96332.00
2023-03-19T10:34:45.410Z,96336.00
2023-03-19T10:38:55.183Z,96316.00
2023-03-19T10:43:10.706Z,96324.00
2023-03-19T10:47:16.183Z,96321.00
2023-03-19T10:51:27.671Z,96313.00
2023-03-19T10:55:38.312Z,96325.00
2023-03-19T10:59:41.320Z,96312.00
2023-03-19T11:03:52.812Z,96315.00
2023-03-19T11:08:02.230Z,96306.00
2023-03-19T11:12:21.488Z,96312.00
2023-03-19T11:16:24.898Z,96314.00
2023-03-19T11:20:33.789Z,96310.00
2023-03-19T11:24:41.438Z,96317.00
2023-03-19T11:28:45.927Z,96308.00
2023-03-19T11:33:28.855Z,96319.00
2023-03-19T11:37:41.537Z,96311.00
2023-03-19T11:42:01.892Z,96311.00
2023-03-19T11:46:16.705Z,96313.00
2023-03-19T11:50:27.322Z,96304.00
2023-03-19T11:54:43.356Z,96315.00
2023-03-19T11:59:09.187Z,96308.00
2023-03-19T12:03:40.458Z,96295.00
2023-03-19T12:07:51.235Z,96294.00
2023-03-19T12:11:59.442Z,96298.00
2023-03-19T12:16:14.675Z,96296.00
2023-03-19T12:20:41.896Z,96286.00
2023-03-19T12:25:02.815Z,96298.00
2023-03-19T12:29:19.690Z,96293.00
2023-03-19T12:33:38.397Z,96286.00
2023-03-19T12:37:54.888Z,96277.00
2023-03-19T12:42:04.142Z,96277.00
2023-03-19T12:46:14.551Z,96278.00
2023-03-19T12:50:19.992Z,96274.00
2023-03-19T12:54:28.530Z,96270.00
2023-03-19T12:58:46.860Z,96261.00
2023-03-19T13:02:57.758Z,96262.00
2023-03-19T13:07:06.812Z,96255.00
2023-03-19T13:11:15.496Z,96255.00
2023-03-19T13:15:28.986Z,96253.00
2023-03-19T13:19:44.495Z,96256.00
2023-03-19T13:23:51.104Z,96253.00
2023-03-19T13:27:57.786Z,96258.00
2023-03-19T13:32:11.371Z,96254.00
2023-03-19T13:36:18.010Z,96249.00
2023-03-19T13:40:48.440Z,96248.00
2023-03-19T13:45:03.754Z,96243.00
2023-03-19T13:49:35.475Z,96236.00
2023-03-19T13:53:53.516Z,96233.00
2023-03-19T13:58:12.190Z,96234.00
2023-03-19T14:02:50.894Z,96223.00
2023-03-19T14:06:59.728Z,96221.00
2023-03-19T14:11:05.814Z,96234.00
2023-03-19T14:15:20.350Z,96227.00
2023-03-19T14:19:30.928Z,96231.00
2023-03-19T14:23:44.154Z,96218.00
2023-03-19T14:27:59.298Z,96222.00
2023-03-19T14:32:10.370Z,96218.00
2023-03-19T14:36:19.865Z,96215.00
2023-03-19T14:40:34.121Z,96214.00
2023-03-19T14:45:07.279Z,96211.00
2023-03-19T14:49:52.935Z,96211.00
2023-03-19T14:54:06.299Z,96216.00
2023-03-19T14:58:13.806Z,96212.00
2023-03-19T15:02:32.033Z,96220.00
2023-03-19T15:06:39.738Z,96214.00
2023-03-19T15:10:57.176Z,96217.00
2023-03-19T15:15:39.158Z,96210.00
2023-03-19T15:19:44.454Z,96208.00
2023-03-19T15:23:48.300Z,96207.00
2023-03-19T15:28:09.892Z,96210.00
2023-03-19T15:32:16.102Z,96204.00
2023-03-19T15:36:31.724Z,96198.00
2023-03-19T15:40:42.733Z,96207.00
2023-03-19T15:44:50.573Z,96205.00
2023-03-19T15:48:58.366Z,96205.00
2023-03-19T15:53:05.989Z,96208.00
2023-03-19T15:57:10.698Z,96209.00
2023-03-19T16:01:19.544Z,96207.00
2023-03-19T16:05:27.497Z,96216.00
2023-03-19T16:09:37.277Z,96210.00
2023-03-19T16:13:41.364Z,96213.00
2023-03-19T16:17:49.532Z,96205.00
2023-03-19T16:21:53.556Z,96208.00
2023-03-19T16:26:15.735Z,96217.00
2023-03-19T16:30:22.613Z,96215.00
2023-03-19T16:34:37.094Z,96223.00
2023-03-19T16:38:46.389Z,96221.00
2023-03-19T16:42:52.958Z,96236.00
2023-03-19T16:46:59.419Z,96230.00
2023-03-19T16:51:06.640Z,96236.00
2023-03-19T16:55:20.891Z,96233.00
2023-03-19T16:59:30.251Z,96237.00
2023-03-19T17:03:33.401Z,96241.00
2023-03-19T17:07:43.524Z,96248.00
2023-03-19T17:11:49.683Z,96246.00
2023-03-19T17:15:55.568Z,96255.00
2023-03-19T17:20:01.283Z,96248.00
2023-03-19T17:24:21.702Z,96266.00
2023-03-19T17:28:28.974Z,96257.00
2023-03-19T17:32:32.255Z,96259.00
2023-03-19T17:36:38.083Z,96260.00
2023-03-19T17:40:44.285Z,96260.00
2023-03-19T17:44:48.013Z,96268.00
2023-03-19T17:48:54.720Z,96267.00
2023-03-19T17:52:58.023Z,96274.00
2023-03-19T17:57:02.488Z,96273.00
2023-03-19T18:01:11.741Z,96275.00
2023-03-19T18:05:21.987Z,96280.00
2023-03-19T18:09:29.415Z,96286.00
2023-03-19T18:13:39.762Z,96285.00
2023-03-19T18:17:55.897Z,96287.00
2023-03-19T18:21:59.184Z,96291.00
2023-03-19T18:26:05.777Z,96289.00
2023-03-19T18:30:13.940Z,96291.00
2023-03-19T18:34:18.847Z,96286.00
2023-03-19T18:38:23.657Z,96284.00
2023-03-19T18:42:26.814Z,96293.00
2023-03-19T18:46:34.391Z,96297.00
2023-03-19T18:50:37.588Z,96307.00
2023-03-19T18:54:43.512Z,96307.00
2023-03-19T18:58:46.816Z,96315.00
2023-03-19T19:02:54.330Z,96322.00
2023-03-19T19:06:57.467Z,96315.00
2023-03-19T19:11:05.684Z,96318.00
2023-03-19T19:15:18.446Z,96326.00
2023-03-19T19:19:40.800Z,96327.00
2023-03-19T19:23:47.394Z,96325.00
2023-03-19T19:27:57.501Z,96332.00
2023-03-19T19:32:00.805Z,96339.00
2023-03-19T19:36:06.369Z,96340.00
2023-03-19T19:40:15.859Z,96343.00
2023-03-19T19:44:21.444Z,96361.00
2023-03-19T19:48:26.333Z,96360.00
2023-03-19T19:52:31.933Z,96361.00
2023-03-19T19:56:35.370Z,96355.00
2023-03-19T20:01:02.223Z,96357.00
2023-03-19T20:05:07.768Z,96377.00
2023-03-19T20:09:12.205Z,96387.00
2023-03-19T20:13:24.318Z,96382.00
2023-03-19T20:17:29.063Z,96387.00
2023-03-19T20:21:34.066Z,96384.00
2023-03-19T20:25:44.310Z,96384.00
2023-03-19T20:29:56.376Z,96384.00
2023-03-19T20:33:59.471Z,96382.00
2023-03-19T20:38:03.540Z,96382.00
2023-03-19T20:42:16.269Z,96387.00
2023-03-19T20:46:21.059Z,96396.00
2023-03-19T20:50:28.809Z,96395.00
2023-03-19T20:54:37.625Z,96392.00
2023-03-19T20:58:42.069Z,96382.00
2023-03-19T21:02:48.052Z,96396.00
2023-03-19T21:06:53.862Z,96389.00
2023-03-19T21:10:58.352Z,96389.00
2023-03-19T21:15:02.812Z,96392.00
2023-03-19T21:19:08.102Z,96389.00
2023-03-19T21:23:18.607Z,96397.00
2023-03-19T21:27:24.668Z,96401.00
2023-03-19T21:31:32.128Z,96403.00
2023-03-19T21:35:38.643Z,96405.00
2023-03-19T21:39:41.929Z,96404.00
2023-03-19T21:43:48.430Z,96408.00
2023-03-19T21:47:54.899Z,96409.00
2023-03-19T21:51:58.244Z,96406.00
2023-03-19T21:56:02.476Z,96408.00
2023-03-19T22:00:12.794Z,96403.00
2023-03-19T22:04:19.266Z,96410.00
2023-03-19T22:08:25.761Z,96409.00
2023-03-19T22:12:32.650Z,96416.00
2023-03-19T22:16:39.898Z,96411.00
2023-03-19T22:20:49.089Z,96404.00
2023-03-19T22:24:54.779Z,96412.00
2023-03-19T22:28:59.930Z,96412.00
2023-03-19T22:33:04.451Z,96415.00
2023-03-19T22:37:24.997Z,96414.00
2023-03-19T22:41:31.905Z,96419.00
2023-03-19T22:45:35.184Z,96416.00
2023-03-19T22:49:38.400Z,96414.00
2023-03-19T22:53:46.905Z,96418.00
2023-03-19T22:57:50.750Z,96422.00
2023-03-19T23:01:53.933Z,96417.00
2023-03-19T23:06:02.514Z,96411.00
2023-03-19T23:10:16.908Z,96412.00
2023-03-19T23:14:30.862Z,96411.00
2023-03-19T23:18:36.749Z,96411.00
2023-03-19T23:22:40.103Z,96408.00
2023-03-19T23:26:46.065Z,96410.00
2023-03-19T23:30:52.368Z,96408.00
2023-03-19T23:35:01.301Z,96416.00
2023-03-19T23:39:10.558Z,96413.00
2023-03-19T23:43:22.054Z,96420.00
2023-03-19T23:47:25.524Z,96417.00
2023-03-19T23:51:34.538Z,96426.00
2023-03-19T23:55:44.742Z,96413.00
2023-03-19T23:59:54.199Z,96429.00
